KE0BZR Weather Reports


Display with metric or nautical units.
time (UTC)temp
F
wind
direction
speed
MPH
gust
MPH
rain 1hr
in
rain 24hr
in
rain mn
in
humidity
%
barometer
mb
20240417094547 53 257 0.0 0.0 0.00 0.04 0.00 36 1007.6
20240417093100 53 219 4.0 13.0 0.00 0.04 0.00 36 1007.6
20240417091549 52 312 3.0 5.0 0.00 0.04 0.00 37 1007.2
20240417090042 52 334 0.0 6.0 0.00 0.04 0.00 36 1007.6
20240417084541 53 163 0.0 0.0 0.00 0.04 0.00 34 1007.4
20240417083040 54 228 0.0 0.0 0.00 0.04 0.00 32 1007.3
20240417081546 55 228 1.0 8.0 0.00 0.04 0.00 31 1007.3
20240417080039 54 184 3.0 8.0 0.00 0.04 0.00 33 1007.4
20240417074536 56 186 0.0 6.0 0.00 0.04 0.00 32 1007.6
20240417073036 57 230 3.0 10.0 0.00 0.04 0.00 31 1007.6
20240417071530 55 251 5.0 8.0 0.00 0.04 0.00 34 1007.6
20240417070025 51 245 0.0 0.0 0.00 0.04 0.00 40 1007.5
20240417064527 49 245 0.0 0.0 0.00 0.04 0.04 42 1007.6
20240417063024 51 245 0.0 0.0 0.00 0.04 0.04 41 1007.5
20240417061531 51 245 0.0 0.0 0.00 0.04 0.04 40 1007.5
20240417060040 52 244 0.0 0.0 0.00 0.04 0.04 38 1007.6
20240417054527 52 277 0.0 0.0 0.00 0.04 0.04 38 1007.5
20240417053023 53 186 0.0 0.0 0.00 0.04 0.04 37 1007.6
20240417051524 54 186 0.0 0.0 0.00 0.04 0.04 36 1007.5
20240417050021 55 186 0.0 0.0 0.00 0.04 0.04 35 1007.3
20240417044521 56 187 0.0 0.0 0.00 0.04 0.04 32 1007.3
20240417043024 56 187 0.0 0.0 0.00 0.04 0.04 32 1007.4
20240417041520 56 187 0.0 0.0 0.00 0.04 0.04 32 1007.4
20240417040021 57 223 0.0 0.0 0.00 0.04 0.04 30 1007.5
20240417034518 58 232 0.0 11.0 0.00 0.04 0.04 29 1007.5
20240417033016 58 186 0.0 5.0 0.00 0.04 0.04 30 1007.4
20240417031523 58 296 6.0 11.0 0.00 0.04 0.04 29 1007.1
20240417030016 58 300 0.0 12.0 0.00 0.04 0.04 29 1006.9
20240417024512 58 332 3.0 12.0 0.00 0.04 0.04 30 1006.8
20240417023026 58 329 6.0 12.0 0.00 0.04 0.04 31 1006.1
20240417021507 58 35 0.0 9.0 0.00 0.04 0.04 30 1006.1
20240417020007 59 313 3.0 15.0 0.00 0.04 0.04 28 1005.7
20240417014504 60 251 11.0 20.0 0.00 0.04 0.04 27 1005.3
20240417013003 60 269 4.0 13.0 0.00 0.04 0.04 28 1005.2
20240417011509 61 269 1.0 12.0 0.00 0.04 0.04 28 1005.2
20240417010004 61 238 5.0 17.0 0.00 0.04 0.04 28 1005.0
20240417004502 62 281 5.0 22.0 0.00 0.04 0.04 29 1005.0
20240417003001 61 342 5.0 16.0 0.00 0.04 0.04 29 1005.1
20240417001600 62 277 8.0 21.0 0.00 0.04 0.04 30 1005.2
20240417001500 62 304 10.0 21.0 0.00 0.04 0.04 30 1005.1
20240417000103 63 257 6.0 25.0 0.00 0.04 0.04 28 1005.2
20240416234603 63 273 14.0 29.0 0.00 0.04 0.04 26 1005.1
20240416233104 62 242 13.0 30.0 0.00 0.04 0.04 27 1005.1
20240416231557 63 259 11.0 27.0 0.00 0.04 0.04 28 1005.3
20240416230058 64 286 13.0 23.0 0.00 0.04 0.04 26 1005.0
20240416224554 63 307 7.0 24.0 0.00 0.04 0.04 29 1004.8
20240416223056 62 288 9.0 25.0 0.00 0.04 0.04 30 1004.6
20240416221551 62 288 10.0 26.0 0.00 0.04 0.04 30 1004.8
20240416220053 62 333 17.0 34.0 0.00 0.04 0.04 29 1004.6
20240416214612 62 321 14.0 32.0 0.00 0.04 0.04 29 1004.7
20240416213048 62 264 13.0 30.0 0.00 0.04 0.04 31 1004.9
20240416211550 61 304 11.0 29.0 0.00 0.04 0.04 31 1005.1
20240416210048 62 263 14.0 36.0 0.00 0.04 0.04 30 1005.1
20240416204548 62 203 13.0 26.0 0.00 0.04 0.04 32 1005.0
20240416203045 62 294 12.0 29.0 0.00 0.04 0.04 32 1005.2
20240416201602 62 330 17.0 27.0 0.00 0.04 0.04 31 1005.1
20240416200044 61 266 14.0 28.0 0.00 0.04 0.04 32 1005.0
20240416194549 61 336 10.0 31.0 0.00 0.04 0.04 32 1004.9
20240416193052 61 291 9.0 24.0 0.00 0.04 0.04 33 1004.6
20240416191550 60 261 11.0 26.0 0.00 0.04 0.04 33 1004.5
20240416190040 61 253 7.0 29.0 0.00 0.04 0.04 33 1004.3
20240416184535 61 265 16.0 31.0 0.00 0.04 0.04 32 1004.0
20240416183033 62 261 8.0 23.0 0.00 0.04 0.04 32 1003.8
20240416181530 61 290 10.0 23.0 0.00 0.04 0.04 31 1003.6
20240416180032 61 250 13.0 24.0 0.00 0.04 0.04 33 1003.3
20240416174528 60 264 10.0 28.0 0.00 0.04 0.04 35 1003.3
20240416173026 59 266 11.0 20.0 0.00 0.04 0.04 36 1003.2
20240416171520 58 301 11.0 19.0 0.00 0.04 0.04 37 1002.9
20240416170017 58 282 8.0 23.0 0.00 0.04 0.04 39 1002.6
20240416164509 57 299 12.0 22.0 0.00 0.04 0.04 39 1002.2
20240416163012 56 331 12.0 25.0 0.00 0.04 0.04 40 1001.8
20240416161506 56 284 14.0 25.0 0.00 0.04 0.04 40 1001.5
20240416160004 56 240 7.0 19.0 0.00 0.04 0.04 42 1001.1
20240416154502 57 308 5.0 17.0 0.00 0.04 0.04 40 1000.7
20240416153111 56 248 5.0 13.0 0.00 0.04 0.04 43 1000.5
20240416151556 55 302 5.0 17.0 0.00 0.04 0.04 44 1000.4
20240416150052 55 309 3.0 9.0 0.00 0.04 0.04 48 999.9
20240416144548 52 340 0.0 4.0 0.00 0.04 0.04 66 999.7
20240416143054 49 232 0.0 0.0 0.00 0.04 0.04 80 999.6
20240416141543 47 232 0.0 0.0 0.00 0.04 0.04 85 999.4
20240416140040 46 232 0.0 0.0 0.00 0.04 0.04 85 999.2
20240416134535 45 232 0.0 0.0 0.00 0.04 0.04 84 999.1
20240416133032 45 232 0.0 0.0 0.00 0.04 0.04 84 999.0
20240416131530 44 232 0.0 0.0 0.00 0.04 0.04 84 999.0
20240416130032 44 232 0.0 0.0 0.00 0.04 0.04 85 999.0
20240416124528 44 232 0.0 0.0 0.00 0.04 0.04 85 998.8
20240416123022 43 232 0.0 4.0 0.00 0.04 0.04 86 998.4
20240416121521 43 233 2.0 10.0 0.00 0.04 0.04 85 998.3
20240416120021 44 232 3.0 5.0 0.00 0.04 0.04 85 998.0
20240416114522 43 94 0.0 0.0 0.02 0.04 0.04 85 998.4
20240416113019 43 80 0.0 4.0 0.04 0.04 0.04 85 997.9
20240416111516 43 62 0.0 5.0 0.04 0.04 0.04 83 997.8
20240416110011 44 11 5.0 13.0 0.04 0.04 0.04 80 997.7
20240416104508 45 329 9.0 18.0 0.02 0.02 0.02 74 997.9
20240416103003 48 337 12.0 25.0 0.00 0.00 0.00 61 997.8
20240416101559 51 287 7.0 23.0 0.00 0.00 0.00 47 997.1
20240416100055 52 323 9.0 20.0 0.00 0.00 0.00 38 996.5